Minden, NE (68959)

8:17 AM CDT on June 30, 2015 (GMT -0500)
Axtell, NE | | Change Station
CLOSE
Current Station
Personal Weather Station
Location: Axtell, NE
Elevation: 2234 ft
Nearby Weather Stations
Active Advisory: Flood Warning

Elev 2234 ft 40.48 °N, 99.08 °W | Updated 40 seconds ago

Clear
Clear
74.3 °F
Feels Like 77 °F
N
4.9
Wind Variable Wind from South
Gusts 7.4 mph

Today
High -- | Low -- °F
--% Chance of Precip.
Yesterday
High -- | Low -- °F
Precip. -- in
6:08 AM 9:10 PM
Waxing Gibbous, 97% visible
Pressure 29.99 in
Visibility 10.0 miles
Clouds Clear
Heat Index 77 °F
Dew Point 56 °F
Humidity 53%
Rainfall 0.00 in
Snow Depth Not available.
UV 2.0 out of 12
Pollen 5.20 out of 12
Air Quality Not available.
Flu Activity No Activity
METAR KEAR 301315Z AUTO 19005KT 10SM CLR 22/17 A2999 RMK AO1

More Conditions Fewer Conditions

Pressure 29.99 in
Visibility 10.0 miles
Clouds Clear
Heat Index 77 °F
Dew Point 56 °F
Humidity 53%
Rainfall 0.00 in
Snow Depth Not available.
UV 2.0 out of 12
Pollen 5.20 out of 12
Air Quality Not available.
Flu Activity No Activity
METAR KEAR 301315Z AUTO 19005KT 10SM CLR 22/17 A2999 RMK AO1

More Conditions Fewer Conditions

10-Day Weather Forecast

×

Almanac

Astronomy

Jun. 30, 2015 Rise Set
Actual Time
Civil Twilight
Nautical Twilight
Astronomical Twilight
Moon
Length of Visible Light
Length of Day
Tomorrow will be .
, % of the Moon is Illuminated

Today's Extremes

State Highs State Lows

Community

WunderPhotos

Upload Photos

1,833,994 photos uploaded!

WunderBlogs® & News

Nearby

Air Quality

  Air Quality AQ Index Pollutant
Not available.

Snow Depth

Station Depth Elevation

Earthquake Activity

City Distance Mag. Time & Date
Minimum magnitude displayed is 2.5.

Coastal Water Temperatures

Place Temperature

Stations

Nearby Weather Stations

Station Location Temp. Windchill Dew Point Humidity Wind Precip. Elev Updated Type
                   
Flood Warning
Statement as of 10:22 PM CDT on June 29, 2015

The Flood Warning continues for
the Platte River near Kearney.
* At 9:15 PM Monday the stage was 5.8 feet.
* Flood stage is 6.0 feet.
* Forecast... the river is expected to be near flood stage
through Tuesday evening.
* At 6.0 feet... minor flooding of rural lowlands occur.


Lat... Lon 4069 9925 4083 9839 4079 9833 4065 9889
      4061 9925